sensor_id;sensor_type;location;lat;lon;timestamp;P1;durP1;ratioP1;P2;durP2;ratioP2
38715;SDS011;24833;49.324;8.694;2022-12-20T00:01:26;12.52;;;8.23;;
38715;SDS011;24833;49.324;8.694;2022-12-20T00:04:00;14.02;;;8.80;;
38715;SDS011;24833;49.324;8.694;2022-12-20T00:06:34;12.40;;;8.65;;
38715;SDS011;24833;49.324;8.694;2022-12-20T00:09:02;13.65;;;9.68;;
38715;SDS011;24833;49.324;8.694;2022-12-20T00:11:32;11.13;;;7.93;;
38715;SDS011;24833;49.324;8.694;2022-12-20T00:14:00;11.82;;;7.57;;
38715;SDS011;24833;49.324;8.694;2022-12-20T00:16:28;11.23;;;7.00;;
38715;SDS011;24833;49.324;8.694;2022-12-20T00:18:56;9.88;;;7.18;;
38715;SDS011;24833;49.324;8.694;2022-12-20T00:21:27;11.95;;;8.70;;
38715;SDS011;24833;49.324;8.694;2022-12-20T00:23:55;11.75;;;8.57;;
38715;SDS011;24833;49.324;8.694;2022-12-20T00:26:24;11.85;;;9.15;;
38715;SDS011;24833;49.324;8.694;2022-12-20T00:28:57;11.45;;;7.78;;
38715;SDS011;24833;49.324;8.694;2022-12-20T00:31:27;11.30;;;7.93;;
38715;SDS011;24833;49.324;8.694;2022-12-20T00:33:56;15.82;;;10.15;;
38715;SDS011;24833;49.324;8.694;2022-12-20T00:36:25;12.55;;;8.95;;
38715;SDS011;24833;49.324;8.694;2022-12-20T00:38:55;15.48;;;10.38;;
38715;SDS011;24833;49.324;8.694;2022-12-20T00:41:24;13.88;;;9.40;;
38715;SDS011;24833;49.324;8.694;2022-12-20T00:43:55;12.82;;;9.55;;
38715;SDS011;24833;49.324;8.694;2022-12-20T00:46:23;13.77;;;9.10;;
38715;SDS011;24833;49.324;8.694;2022-12-20T00:48:51;16.20;;;9.98;;
38715;SDS011;24833;49.324;8.694;2022-12-20T00:51:24;15.18;;;8.70;;
38715;SDS011;24833;49.324;8.694;2022-12-20T00:53:54;14.02;;;8.10;;
38715;SDS011;24833;49.324;8.694;2022-12-20T00:56:22;12.27;;;8.48;;
38715;SDS011;24833;49.324;8.694;2022-12-20T00:58:51;14.30;;;9.05;;
38715;SDS011;24833;49.324;8.694;2022-12-20T01:01:24;14.00;;;8.82;;
38715;SDS011;24833;49.324;8.694;2022-12-20T01:03:55;11.68;;;8.15;;
38715;SDS011;24833;49.324;8.694;2022-12-20T01:06:22;11.65;;;7.90;;
38715;SDS011;24833;49.324;8.694;2022-12-20T01:08:51;12.15;;;7.93;;
38715;SDS011;24833;49.324;8.694;2022-12-20T01:11:20;14.02;;;8.20;;
38715;SDS011;24833;49.324;8.694;2022-12-20T01:14:07;11.48;;;7.55;;
38715;SDS011;24833;49.324;8.694;2022-12-20T01:16:40;12.15;;;6.95;;
38715;SDS011;24833;49.324;8.694;2022-12-20T01:19:13;10.93;;;7.53;;
38715;SDS011;24833;49.324;8.694;2022-12-20T01:24:11;9.63;;;6.85;;
38715;SDS011;24833;49.324;8.694;2022-12-20T01:26:44;9.27;;;6.85;;
38715;SDS011;24833;49.324;8.694;2022-12-20T01:29:12;10.23;;;7.50;;
38715;SDS011;24833;49.324;8.694;2022-12-20T01:31:40;11.00;;;7.28;;
38715;SDS011;24833;49.324;8.694;2022-12-20T01:34:08;10.57;;;6.97;;
38715;SDS011;24833;49.324;8.694;2022-12-20T01:36:37;8.65;;;6.53;;
38715;SDS011;24833;49.324;8.694;2022-12-20T01:39:06;11.40;;;6.85;;
38715;SDS011;24833;49.324;8.694;2022-12-20T01:41:38;10.20;;;6.95;;
38715;SDS011;24833;49.324;8.694;2022-12-20T01:46:43;9.30;;;6.38;;
38715;SDS011;24833;49.324;8.694;2022-12-20T01:49:17;10.40;;;7.03;;
38715;SDS011;24833;49.324;8.694;2022-12-20T01:52:06;8.85;;;7.13;;
38715;SDS011;24833;49.324;8.694;2022-12-20T01:54:52;11.85;;;6.88;;
38715;SDS011;24833;49.324;8.694;2022-12-20T01:57:52;9.00;;;6.20;;
38715;SDS011;24833;49.324;8.694;2022-12-20T02:00:27;10.52;;;7.50;;
38715;SDS011;24833;49.324;8.694;2022-12-20T02:02:54;10.45;;;7.35;;
38715;SDS011;24833;49.324;8.694;2022-12-20T02:05:26;11.93;;;7.72;;
38715;SDS011;24833;49.324;8.694;2022-12-20T02:07:59;9.93;;;7.00;;
38715;SDS011;24833;49.324;8.694;2022-12-20T02:10:28;11.00;;;8.10;;
38715;SDS011;24833;49.324;8.694;2022-12-20T02:13:24;11.73;;;7.90;;
38715;SDS011;24833;49.324;8.694;2022-12-20T02:16:27;12.38;;;7.25;;
38715;SDS011;24833;49.324;8.694;2022-12-20T02:19:15;9.07;;;6.15;;
38715;SDS011;24833;49.324;8.694;2022-12-20T02:22:35;9.68;;;6.10;;
38715;SDS011;24833;49.324;8.694;2022-12-20T02:28:44;11.10;;;7.13;;
38715;SDS011;24833;49.324;8.694;2022-12-20T02:32:08;11.00;;;7.22;;
38715;SDS011;24833;49.324;8.694;2022-12-20T02:34:50;10.73;;;6.95;;
38715;SDS011;24833;49.324;8.694;2022-12-20T02:37:18;11.07;;;6.65;;
38715;SDS011;24833;49.324;8.694;2022-12-20T02:39:45;8.85;;;6.82;;
38715;SDS011;24833;49.324;8.694;2022-12-20T02:42:15;7.97;;;6.07;;
38715;SDS011;24833;49.324;8.694;2022-12-20T02:44:55;8.88;;;6.15;;
38715;SDS011;24833;49.324;8.694;2022-12-20T02:47:51;10.15;;;6.60;;
38715;SDS011;24833;49.324;8.694;2022-12-20T02:50:39;9.20;;;5.97;;
38715;SDS011;24833;49.324;8.694;2022-12-20T02:53:11;8.32;;;5.90;;
38715;SDS011;24833;49.324;8.694;2022-12-20T02:55:45;9.13;;;6.43;;
38715;SDS011;24833;49.324;8.694;2022-12-20T02:59:05;10.02;;;7.22;;
38715;SDS011;24833;49.324;8.694;2022-12-20T03:01:44;13.73;;;7.75;;
38715;SDS011;24833;49.324;8.694;2022-12-20T03:04:16;11.38;;;7.13;;
38715;SDS011;24833;49.324;8.694;2022-12-20T03:09:33;11.73;;;6.72;;
38715;SDS011;24833;49.324;8.694;2022-12-20T03:12:04;11.68;;;7.85;;
38715;SDS011;24833;49.324;8.694;2022-12-20T03:14:34;8.13;;;6.30;;
38715;SDS011;24833;49.324;8.694;2022-12-20T03:17:04;10.40;;;6.88;;
38715;SDS011;24833;49.324;8.694;2022-12-20T03:19:33;10.68;;;7.30;;
38715;SDS011;24833;49.324;8.694;2022-12-20T03:22:00;12.00;;;7.72;;
38715;SDS011;24833;49.324;8.694;2022-12-20T03:24:29;12.27;;;7.95;;
38715;SDS011;24833;49.324;8.694;2022-12-20T03:26:58;10.30;;;7.22;;
38715;SDS011;24833;49.324;8.694;2022-12-20T03:29:25;11.90;;;7.07;;
38715;SDS011;24833;49.324;8.694;2022-12-20T03:31:52;9.40;;;7.47;;
38715;SDS011;24833;49.324;8.694;2022-12-20T03:34:19;10.27;;;8.05;;
38715;SDS011;24833;49.324;8.694;2022-12-20T03:36:46;11.68;;;7.47;;
38715;SDS011;24833;49.324;8.694;2022-12-20T03:39:13;11.13;;;8.02;;
38715;SDS011;24833;49.324;8.694;2022-12-20T03:41:40;8.55;;;7.10;;
38715;SDS011;24833;49.324;8.694;2022-12-20T03:44:10;9.32;;;6.95;;
38715;SDS011;24833;49.324;8.694;2022-12-20T03:46:37;9.05;;;6.35;;
38715;SDS011;24833;49.324;8.694;2022-12-20T03:49:04;10.23;;;7.20;;
38715;SDS011;24833;49.324;8.694;2022-12-20T03:51:35;11.18;;;7.38;;
38715;SDS011;24833;49.324;8.694;2022-12-20T03:54:03;9.52;;;6.82;;
38715;SDS011;24833;49.324;8.694;2022-12-20T03:56:48;10.00;;;7.15;;
38715;SDS011;24833;49.324;8.694;2022-12-20T03:59:16;12.23;;;8.13;;
38715;SDS011;24833;49.324;8.694;2022-12-20T04:01:43;11.38;;;7.25;;
38715;SDS011;24833;49.324;8.694;2022-12-20T04:04:11;11.30;;;6.97;;
38715;SDS011;24833;49.324;8.694;2022-12-20T04:06:40;13.63;;;8.70;;
38715;SDS011;24833;49.324;8.694;2022-12-20T04:09:07;9.32;;;7.15;;
38715;SDS011;24833;49.324;8.694;2022-12-20T04:11:41;12.40;;;7.53;;
38715;SDS011;24833;49.324;8.694;2022-12-20T04:14:12;11.05;;;7.75;;
38715;SDS011;24833;49.324;8.694;2022-12-20T04:16:39;9.75;;;7.13;;
38715;SDS011;24833;49.324;8.694;2022-12-20T04:19:08;9.27;;;7.28;;
38715;SDS011;24833;49.324;8.694;2022-12-20T04:21:39;10.52;;;7.32;;
38715;SDS011;24833;49.324;8.694;2022-12-20T04:24:06;9.07;;;7.10;;
38715;SDS011;24833;49.324;8.694;2022-12-20T04:26:41;14.80;;;9.02;;
38715;SDS011;24833;49.324;8.694;2022-12-20T04:29:09;11.98;;;7.93;;
38715;SDS011;24833;49.324;8.694;2022-12-20T04:31:36;8.88;;;6.28;;
38715;SDS011;24833;49.324;8.694;2022-12-20T04:34:03;10.77;;;7.30;;
38715;SDS011;24833;49.324;8.694;2022-12-20T04:36:32;8.82;;;6.30;;
38715;SDS011;24833;49.324;8.694;2022-12-20T04:39:02;8.57;;;6.20;;
38715;SDS011;24833;49.324;8.694;2022-12-20T04:41:38;9.77;;;6.50;;
38715;SDS011;24833;49.324;8.694;2022-12-20T04:46:37;7.90;;;5.97;;
38715;SDS011;24833;49.324;8.694;2022-12-20T04:49:09;8.20;;;6.20;;
38715;SDS011;24833;49.324;8.694;2022-12-20T04:51:39;8.38;;;6.35;;
38715;SDS011;24833;49.324;8.694;2022-12-20T04:54:06;8.10;;;5.90;;
38715;SDS011;24833;49.324;8.694;2022-12-20T04:56:38;7.53;;;6.03;;
38715;SDS011;24833;49.324;8.694;2022-12-20T04:59:10;10.20;;;6.32;;
38715;SDS011;24833;49.324;8.694;2022-12-20T05:01:40;9.57;;;6.03;;
38715;SDS011;24833;49.324;8.694;2022-12-20T05:04:08;10.57;;;6.90;;
38715;SDS011;24833;49.324;8.694;2022-12-20T05:06:35;9.45;;;6.10;;
38715;SDS011;24833;49.324;8.694;2022-12-20T05:09:03;10.57;;;6.40;;
38715;SDS011;24833;49.324;8.694;2022-12-20T05:11:31;8.98;;;6.55;;
38715;SDS011;24833;49.324;8.694;2022-12-20T05:13:59;7.80;;;5.93;;
38715;SDS011;24833;49.324;8.694;2022-12-20T05:16:26;9.02;;;6.57;;
38715;SDS011;24833;49.324;8.694;2022-12-20T05:18:53;9.00;;;6.55;;
38715;SDS011;24833;49.324;8.694;2022-12-20T05:21:20;8.05;;;6.28;;
38715;SDS011;24833;49.324;8.694;2022-12-20T05:24:07;8.65;;;6.50;;
38715;SDS011;24833;49.324;8.694;2022-12-20T05:27:16;8.32;;;6.60;;
38715;SDS011;24833;49.324;8.694;2022-12-20T05:29:43;9.93;;;6.72;;
38715;SDS011;24833;49.324;8.694;2022-12-20T05:32:10;10.55;;;6.05;;
38715;SDS011;24833;49.324;8.694;2022-12-20T05:34:40;8.15;;;5.95;;
38715;SDS011;24833;49.324;8.694;2022-12-20T05:37:07;7.95;;;6.13;;
38715;SDS011;24833;49.324;8.694;2022-12-20T05:39:36;7.45;;;5.97;;
38715;SDS011;24833;49.324;8.694;2022-12-20T05:42:08;8.73;;;6.28;;
38715;SDS011;24833;49.324;8.694;2022-12-20T05:44:36;8.90;;;5.45;;
38715;SDS011;24833;49.324;8.694;2022-12-20T05:47:03;9.32;;;5.70;;
38715;SDS011;24833;49.324;8.694;2022-12-20T05:49:33;6.50;;;5.57;;
38715;SDS011;24833;49.324;8.694;2022-12-20T05:52:02;8.02;;;5.80;;
38715;SDS011;24833;49.324;8.694;2022-12-20T05:54:30;7.43;;;5.00;;
38715;SDS011;24833;49.324;8.694;2022-12-20T05:57:15;5.97;;;4.53;;
38715;SDS011;24833;49.324;8.694;2022-12-20T05:59:42;6.75;;;4.90;;
38715;SDS011;24833;49.324;8.694;2022-12-20T06:02:15;7.32;;;4.88;;
38715;SDS011;24833;49.324;8.694;2022-12-20T06:04:44;7.30;;;5.20;;
38715;SDS011;24833;49.324;8.694;2022-12-20T06:07:16;5.68;;;4.82;;
38715;SDS011;24833;49.324;8.694;2022-12-20T06:09:47;11.77;;;5.45;;
38715;SDS011;24833;49.324;8.694;2022-12-20T06:12:17;7.20;;;5.15;;
38715;SDS011;24833;49.324;8.694;2022-12-20T06:14:45;7.22;;;5.40;;
38715;SDS011;24833;49.324;8.694;2022-12-20T06:17:12;6.95;;;4.93;;
38715;SDS011;24833;49.324;8.694;2022-12-20T06:19:39;5.72;;;4.68;;
38715;SDS011;24833;49.324;8.694;2022-12-20T06:22:12;6.68;;;5.13;;
38715;SDS011;24833;49.324;8.694;2022-12-20T06:24:43;8.00;;;5.37;;
38715;SDS011;24833;49.324;8.694;2022-12-20T06:27:16;6.85;;;4.90;;
38715;SDS011;24833;49.324;8.694;2022-12-20T06:29:48;7.35;;;4.82;;
38715;SDS011;24833;49.324;8.694;2022-12-20T06:32:22;8.00;;;5.28;;
38715;SDS011;24833;49.324;8.694;2022-12-20T06:34:49;6.22;;;5.10;;
38715;SDS011;24833;49.324;8.694;2022-12-20T06:37:16;7.90;;;5.63;;
38715;SDS011;24833;49.324;8.694;2022-12-20T06:39:43;5.68;;;4.20;;
38715;SDS011;24833;49.324;8.694;2022-12-20T06:42:12;7.13;;;4.65;;
38715;SDS011;24833;49.324;8.694;2022-12-20T06:44:41;5.50;;;3.83;;
38715;SDS011;24833;49.324;8.694;2022-12-20T06:47:08;5.43;;;4.05;;
38715;SDS011;24833;49.324;8.694;2022-12-20T06:49:36;5.78;;;4.45;;
38715;SDS011;24833;49.324;8.694;2022-12-20T06:52:09;6.90;;;4.63;;
38715;SDS011;24833;49.324;8.694;2022-12-20T06:54:48;6.63;;;4.55;;
38715;SDS011;24833;49.324;8.694;2022-12-20T06:57:17;7.57;;;4.80;;
38715;SDS011;24833;49.324;8.694;2022-12-20T06:59:46;7.00;;;4.45;;
38715;SDS011;24833;49.324;8.694;2022-12-20T07:02:13;7.65;;;4.50;;
38715;SDS011;24833;49.324;8.694;2022-12-20T07:04:41;6.40;;;4.57;;
38715;SDS011;24833;49.324;8.694;2022-12-20T07:07:08;6.03;;;4.30;;
38715;SDS011;24833;49.324;8.694;2022-12-20T07:09:36;6.03;;;4.72;;
38715;SDS011;24833;49.324;8.694;2022-12-20T07:12:07;6.60;;;4.95;;
38715;SDS011;24833;49.324;8.694;2022-12-20T07:14:35;5.53;;;4.13;;
38715;SDS011;24833;49.324;8.694;2022-12-20T07:17:02;6.00;;;4.65;;
38715;SDS011;24833;49.324;8.694;2022-12-20T07:19:31;4.75;;;3.55;;
38715;SDS011;24833;49.324;8.694;2022-12-20T07:21:58;4.93;;;4.28;;
38715;SDS011;24833;49.324;8.694;2022-12-20T07:24:25;6.95;;;4.68;;
38715;SDS011;24833;49.324;8.694;2022-12-20T07:26:52;6.38;;;4.35;;
38715;SDS011;24833;49.324;8.694;2022-12-20T07:29:19;6.78;;;5.00;;
38715;SDS011;24833;49.324;8.694;2022-12-20T07:31:46;5.40;;;3.60;;
38715;SDS011;24833;49.324;8.694;2022-12-20T07:34:13;5.35;;;4.00;;
38715;SDS011;24833;49.324;8.694;2022-12-20T07:36:40;7.32;;;3.70;;
38715;SDS011;24833;49.324;8.694;2022-12-20T07:39:07;6.25;;;3.78;;
38715;SDS011;24833;49.324;8.694;2022-12-20T07:41:34;6.32;;;4.15;;
38715;SDS011;24833;49.324;8.694;2022-12-20T07:44:02;6.13;;;4.07;;
38715;SDS011;24833;49.324;8.694;2022-12-20T07:46:29;7.32;;;5.10;;
38715;SDS011;24833;49.324;8.694;2022-12-20T07:48:56;6.28;;;4.82;;
38715;SDS011;24833;49.324;8.694;2022-12-20T07:51:25;5.32;;;4.47;;
38715;SDS011;24833;49.324;8.694;2022-12-20T07:56:38;5.35;;;3.88;;
38715;SDS011;24833;49.324;8.694;2022-12-20T07:59:11;4.43;;;3.67;;
38715;SDS011;24833;49.324;8.694;2022-12-20T08:01:41;5.32;;;3.80;;
38715;SDS011;24833;49.324;8.694;2022-12-20T08:04:12;6.82;;;4.35;;
38715;SDS011;24833;49.324;8.694;2022-12-20T08:06:44;5.75;;;3.65;;
38715;SDS011;24833;49.324;8.694;2022-12-20T08:09:11;6.30;;;4.82;;
38715;SDS011;24833;49.324;8.694;2022-12-20T08:11:40;7.07;;;5.03;;
38715;SDS011;24833;49.324;8.694;2022-12-20T08:14:11;6.78;;;5.03;;
38715;SDS011;24833;49.324;8.694;2022-12-20T08:16:39;6.53;;;3.95;;
38715;SDS011;24833;49.324;8.694;2022-12-20T08:19:06;6.40;;;3.65;;
38715;SDS011;24833;49.324;8.694;2022-12-20T08:21:33;6.60;;;4.38;;
38715;SDS011;24833;49.324;8.694;2022-12-20T08:24:00;7.50;;;5.10;;
38715;SDS011;24833;49.324;8.694;2022-12-20T08:26:27;6.25;;;4.68;;
38715;SDS011;24833;49.324;8.694;2022-12-20T08:28:54;5.93;;;4.15;;
38715;SDS011;24833;49.324;8.694;2022-12-20T08:31:21;7.20;;;4.30;;
38715;SDS011;24833;49.324;8.694;2022-12-20T08:33:52;9.07;;;5.38;;
38715;SDS011;24833;49.324;8.694;2022-12-20T08:36:20;6.32;;;4.60;;
38715;SDS011;24833;49.324;8.694;2022-12-20T08:38:47;5.95;;;4.28;;
38715;SDS011;24833;49.324;8.694;2022-12-20T08:41:14;6.00;;;4.60;;
38715;SDS011;24833;49.324;8.694;2022-12-20T08:43:42;7.38;;;4.65;;
38715;SDS011;24833;49.324;8.694;2022-12-20T08:46:09;6.82;;;4.63;;
38715;SDS011;24833;49.324;8.694;2022-12-20T08:48:40;8.85;;;4.80;;
38715;SDS011;24833;49.324;8.694;2022-12-20T08:51:08;6.20;;;4.65;;
38715;SDS011;24833;49.324;8.694;2022-12-20T08:53:37;6.43;;;4.80;;
38715;SDS011;24833;49.324;8.694;2022-12-20T08:56:09;7.22;;;4.93;;
38715;SDS011;24833;49.324;8.694;2022-12-20T08:58:39;7.10;;;5.10;;
38715;SDS011;24833;49.324;8.694;2022-12-20T09:01:12;5.95;;;4.40;;
38715;SDS011;24833;49.324;8.694;2022-12-20T09:03:45;6.13;;;4.30;;
38715;SDS011;24833;49.324;8.694;2022-12-20T09:06:15;6.03;;;4.22;;
38715;SDS011;24833;49.324;8.694;2022-12-20T09:08:45;6.28;;;3.88;;
38715;SDS011;24833;49.324;8.694;2022-12-20T09:11:14;8.75;;;4.78;;
38715;SDS011;24833;49.324;8.694;2022-12-20T09:13:45;4.72;;;4.22;;
38715;SDS011;24833;49.324;8.694;2022-12-20T09:16:16;7.10;;;4.28;;
38715;SDS011;24833;49.324;8.694;2022-12-20T09:18:49;7.03;;;4.55;;
38715;SDS011;24833;49.324;8.694;2022-12-20T09:21:26;5.13;;;4.22;;
38715;SDS011;24833;49.324;8.694;2022-12-20T09:23:53;7.07;;;4.50;;
38715;SDS011;24833;49.324;8.694;2022-12-20T09:26:22;5.63;;;4.20;;
38715;SDS011;24833;49.324;8.694;2022-12-20T09:28:49;7.35;;;4.60;;
38715;SDS011;24833;49.324;8.694;2022-12-20T09:31:18;5.35;;;4.40;;
38715;SDS011;24833;49.324;8.694;2022-12-20T09:36:16;6.03;;;4.40;;
38715;SDS011;24833;49.324;8.694;2022-12-20T09:38:46;6.95;;;4.50;;
38715;SDS011;24833;49.324;8.694;2022-12-20T09:41:23;7.70;;;4.55;;
38715;SDS011;24833;49.324;8.694;2022-12-20T09:47:03;4.95;;;3.80;;
38715;SDS011;24833;49.324;8.694;2022-12-20T09:49:38;4.88;;;3.78;;
38715;SDS011;24833;49.324;8.694;2022-12-20T09:55:30;5.00;;;3.63;;
38715;SDS011;24833;49.324;8.694;2022-12-20T10:00:47;6.43;;;4.45;;
38715;SDS011;24833;49.324;8.694;2022-12-20T10:03:25;5.57;;;3.67;;
38715;SDS011;24833;49.324;8.694;2022-12-20T10:06:03;6.38;;;4.15;;
38715;SDS011;24833;49.324;8.694;2022-12-20T10:08:58;7.38;;;4.28;;
38715;SDS011;24833;49.324;8.694;2022-12-20T10:23:16;7.57;;;4.40;;
38715;SDS011;24833;49.324;8.694;2022-12-20T10:26:09;5.70;;;4.10;;
38715;SDS011;24833;49.324;8.694;2022-12-20T10:28:38;6.57;;;3.63;;
38715;SDS011;24833;49.324;8.694;2022-12-20T10:31:15;5.32;;;3.88;;
38715;SDS011;24833;49.324;8.694;2022-12-20T10:33:44;7.03;;;4.15;;
38715;SDS011;24833;49.324;8.694;2022-12-20T10:36:19;6.75;;;4.45;;
38715;SDS011;24833;49.324;8.694;2022-12-20T10:38:59;6.40;;;4.00;;
38715;SDS011;24833;49.324;8.694;2022-12-20T10:44:25;5.78;;;3.83;;
38715;SDS011;24833;49.324;8.694;2022-12-20T10:46:55;5.18;;;3.63;;
38715;SDS011;24833;49.324;8.694;2022-12-20T10:49:32;6.75;;;3.63;;
38715;SDS011;24833;49.324;8.694;2022-12-20T10:59:48;5.32;;;3.67;;
38715;SDS011;24833;49.324;8.694;2022-12-20T11:07:49;5.90;;;3.22;;
38715;SDS011;24833;49.324;8.694;2022-12-20T11:11:23;5.20;;;3.03;;
38715;SDS011;24833;49.324;8.694;2022-12-20T11:13:50;4.60;;;3.05;;
38715;SDS011;24833;49.324;8.694;2022-12-20T11:16:22;4.95;;;3.60;;
38715;SDS011;24833;49.324;8.694;2022-12-20T11:28:00;5.18;;;3.25;;
38715;SDS011;24833;49.324;8.694;2022-12-20T11:30:57;5.20;;;3.50;;
38715;SDS011;24833;49.324;8.694;2022-12-20T11:37:17;5.03;;;2.33;;
38715;SDS011;24833;49.324;8.694;2022-12-20T11:49:07;4.68;;;2.70;;
38715;SDS011;24833;49.324;8.694;2022-12-20T11:52:18;3.35;;;2.60;;
38715;SDS011;24833;49.324;8.694;2022-12-20T11:55:38;4.55;;;3.13;;
38715;SDS011;24833;49.324;8.694;2022-12-20T12:00:53;3.85;;;3.05;;
38715;SDS011;24833;49.324;8.694;2022-12-20T12:03:33;4.10;;;2.67;;
38715;SDS011;24833;49.324;8.694;2022-12-20T12:06:19;4.28;;;2.95;;
38715;SDS011;24833;49.324;8.694;2022-12-20T12:08:52;5.72;;;3.75;;
38715;SDS011;24833;49.324;8.694;2022-12-20T12:12:09;3.85;;;2.50;;
38715;SDS011;24833;49.324;8.694;2022-12-20T12:20:34;3.97;;;2.72;;
38715;SDS011;24833;49.324;8.694;2022-12-20T12:26:08;4.47;;;3.03;;
38715;SDS011;24833;49.324;8.694;2022-12-20T12:28:38;3.58;;;2.67;;
38715;SDS011;24833;49.324;8.694;2022-12-20T12:31:10;3.40;;;2.22;;
38715;SDS011;24833;49.324;8.694;2022-12-20T12:33:45;4.57;;;2.65;;
38715;SDS011;24833;49.324;8.694;2022-12-20T12:46:41;3.75;;;2.85;;
38715;SDS011;24833;49.324;8.694;2022-12-20T12:49:03;3.13;;;2.80;;
38715;SDS011;24833;49.324;8.694;2022-12-20T12:51:43;3.78;;;3.03;;
38715;SDS011;24833;49.324;8.694;2022-12-20T12:54:21;3.15;;;2.40;;
38715;SDS011;24833;49.324;8.694;2022-12-20T12:56:51;4.10;;;2.47;;
38715;SDS011;24833;49.324;8.694;2022-12-20T12:59:41;4.75;;;2.83;;
38715;SDS011;24833;49.324;8.694;2022-12-20T13:09:59;5.53;;;3.58;;
38715;SDS011;24833;49.324;8.694;2022-12-20T13:15:45;3.00;;;2.63;;
38715;SDS011;24833;49.324;8.694;2022-12-20T13:20:34;6.55;;;3.28;;
38715;SDS011;24833;49.324;8.694;2022-12-20T13:25:39;3.85;;;3.17;;
38715;SDS011;24833;49.324;8.694;2022-12-20T13:30:44;5.80;;;3.35;;
38715;SDS011;24833;49.324;8.694;2022-12-20T13:44:08;3.92;;;3.30;;
38715;SDS011;24833;49.324;8.694;2022-12-20T13:46:46;4.97;;;3.30;;
38715;SDS011;24833;49.324;8.694;2022-12-20T13:49:38;5.35;;;3.53;;
38715;SDS011;24833;49.324;8.694;2022-12-20T13:55:15;4.43;;;3.08;;
38715;SDS011;24833;49.324;8.694;2022-12-20T13:58:02;4.70;;;3.22;;
38715;SDS011;24833;49.324;8.694;2022-12-20T14:01:12;4.30;;;2.95;;
38715;SDS011;24833;49.324;8.694;2022-12-20T14:03:40;4.93;;;3.08;;
38715;SDS011;24833;49.324;8.694;2022-12-20T14:06:14;4.55;;;3.03;;
38715;SDS011;24833;49.324;8.694;2022-12-20T14:08:51;3.15;;;2.65;;
38715;SDS011;24833;49.324;8.694;2022-12-20T14:11:23;3.47;;;2.72;;
38715;SDS011;24833;49.324;8.694;2022-12-20T14:13:59;3.85;;;3.17;;
38715;SDS011;24833;49.324;8.694;2022-12-20T14:16:31;8.60;;;3.60;;
38715;SDS011;24833;49.324;8.694;2022-12-20T14:18:59;5.60;;;3.67;;
38715;SDS011;24833;49.324;8.694;2022-12-20T14:21:29;5.45;;;3.45;;
38715;SDS011;24833;49.324;8.694;2022-12-20T14:24:00;4.38;;;3.17;;
38715;SDS011;24833;49.324;8.694;2022-12-20T14:26:29;8.55;;;3.45;;
38715;SDS011;24833;49.324;8.694;2022-12-20T14:29:09;5.07;;;3.22;;
38715;SDS011;24833;49.324;8.694;2022-12-20T14:31:44;6.13;;;3.90;;
38715;SDS011;24833;49.324;8.694;2022-12-20T14:34:17;6.18;;;3.40;;
38715;SDS011;24833;49.324;8.694;2022-12-20T14:37:16;4.35;;;2.75;;
38715;SDS011;24833;49.324;8.694;2022-12-20T14:40:36;7.00;;;3.42;;
38715;SDS011;24833;49.324;8.694;2022-12-20T14:42:45;6.03;;;3.30;;
38715;SDS011;24833;49.324;8.694;2022-12-20T14:50:32;4.72;;;3.38;;
38715;SDS011;24833;49.324;8.694;2022-12-20T14:53:15;5.30;;;3.25;;
38715;SDS011;24833;49.324;8.694;2022-12-20T14:55:47;4.63;;;3.08;;
38715;SDS011;24833;49.324;8.694;2022-12-20T14:58:25;5.45;;;3.58;;
38715;SDS011;24833;49.324;8.694;2022-12-20T15:00:59;5.00;;;4.00;;
38715;SDS011;24833;49.324;8.694;2022-12-20T15:03:28;3.95;;;3.33;;
38715;SDS011;24833;49.324;8.694;2022-12-20T15:05:56;5.00;;;3.60;;
38715;SDS011;24833;49.324;8.694;2022-12-20T15:08:28;5.38;;;3.65;;
38715;SDS011;24833;49.324;8.694;2022-12-20T15:13:37;3.45;;;3.15;;
38715;SDS011;24833;49.324;8.694;2022-12-20T15:16:20;4.10;;;3.22;;
38715;SDS011;24833;49.324;8.694;2022-12-20T15:18:54;3.90;;;3.28;;
38715;SDS011;24833;49.324;8.694;2022-12-20T15:21:34;4.40;;;3.45;;
38715;SDS011;24833;49.324;8.694;2022-12-20T15:24:11;4.20;;;3.20;;
38715;SDS011;24833;49.324;8.694;2022-12-20T15:26:44;4.47;;;3.63;;
38715;SDS011;24833;49.324;8.694;2022-12-20T15:29:14;5.38;;;3.40;;
38715;SDS011;24833;49.324;8.694;2022-12-20T15:31:51;6.15;;;3.55;;
38715;SDS011;24833;49.324;8.694;2022-12-20T15:34:33;4.68;;;3.00;;
38715;SDS011;24833;49.324;8.694;2022-12-20T15:37:03;5.43;;;2.97;;
38715;SDS011;24833;49.324;8.694;2022-12-20T15:39:32;4.95;;;3.55;;
38715;SDS011;24833;49.324;8.694;2022-12-20T15:42:05;6.68;;;3.83;;
38715;SDS011;24833;49.324;8.694;2022-12-20T15:44:39;4.03;;;2.88;;
38715;SDS011;24833;49.324;8.694;2022-12-20T15:47:10;6.03;;;3.72;;
38715;SDS011;24833;49.324;8.694;2022-12-20T15:49:39;6.85;;;4.60;;
38715;SDS011;24833;49.324;8.694;2022-12-20T15:52:15;3.22;;;2.60;;
38715;SDS011;24833;49.324;8.694;2022-12-20T15:54:47;4.13;;;2.50;;
38715;SDS011;24833;49.324;8.694;2022-12-20T15:57:15;3.65;;;2.63;;
38715;SDS011;24833;49.324;8.694;2022-12-20T15:59:42;4.57;;;2.88;;
38715;SDS011;24833;49.324;8.694;2022-12-20T16:02:36;3.40;;;2.40;;
38715;SDS011;24833;49.324;8.694;2022-12-20T16:05:04;3.88;;;2.67;;
38715;SDS011;24833;49.324;8.694;2022-12-20T16:07:31;3.15;;;2.33;;
38715;SDS011;24833;49.324;8.694;2022-12-20T16:09:58;4.68;;;2.60;;
38715;SDS011;24833;49.324;8.694;2022-12-20T16:12:27;3.25;;;2.20;;
38715;SDS011;24833;49.324;8.694;2022-12-20T16:14:58;2.97;;;2.47;;
38715;SDS011;24833;49.324;8.694;2022-12-20T16:17:25;5.88;;;2.65;;
38715;SDS011;24833;49.324;8.694;2022-12-20T16:19:52;4.38;;;2.58;;
38715;SDS011;24833;49.324;8.694;2022-12-20T16:22:21;4.63;;;2.83;;
38715;SDS011;24833;49.324;8.694;2022-12-20T16:24:49;5.28;;;2.60;;
38715;SDS011;24833;49.324;8.694;2022-12-20T16:27:17;4.57;;;3.10;;
38715;SDS011;24833;49.324;8.694;2022-12-20T16:29:44;6.22;;;3.15;;
38715;SDS011;24833;49.324;8.694;2022-12-20T16:32:15;4.45;;;3.30;;
38715;SDS011;24833;49.324;8.694;2022-12-20T16:34:45;5.30;;;2.95;;
38715;SDS011;24833;49.324;8.694;2022-12-20T16:37:14;5.15;;;3.22;;
38715;SDS011;24833;49.324;8.694;2022-12-20T16:39:41;7.22;;;3.35;;
38715;SDS011;24833;49.324;8.694;2022-12-20T16:42:15;4.38;;;2.85;;
38715;SDS011;24833;49.324;8.694;2022-12-20T16:44:51;7.70;;;3.05;;
38715;SDS011;24833;49.324;8.694;2022-12-20T16:47:19;4.63;;;3.67;;
38715;SDS011;24833;49.324;8.694;2022-12-20T16:49:46;5.30;;;3.17;;
38715;SDS011;24833;49.324;8.694;2022-12-20T16:52:19;4.60;;;3.58;;
38715;SDS011;24833;49.324;8.694;2022-12-20T16:54:48;4.13;;;2.95;;
38715;SDS011;24833;49.324;8.694;2022-12-20T16:57:16;4.60;;;3.20;;
38715;SDS011;24833;49.324;8.694;2022-12-20T16:59:44;4.40;;;2.97;;
38715;SDS011;24833;49.324;8.694;2022-12-20T17:02:20;4.43;;;2.53;;
38715;SDS011;24833;49.324;8.694;2022-12-20T17:04:54;3.22;;;2.20;;
38715;SDS011;24833;49.324;8.694;2022-12-20T17:07:21;5.50;;;3.33;;
38715;SDS011;24833;49.324;8.694;2022-12-20T17:09:48;5.50;;;3.42;;
38715;SDS011;24833;49.324;8.694;2022-12-20T17:12:16;4.60;;;3.10;;
38715;SDS011;24833;49.324;8.694;2022-12-20T17:14:46;4.15;;;2.90;;
38715;SDS011;24833;49.324;8.694;2022-12-20T17:17:14;3.95;;;2.53;;
38715;SDS011;24833;49.324;8.694;2022-12-20T17:19:41;3.85;;;2.70;;
38715;SDS011;24833;49.324;8.694;2022-12-20T17:22:09;3.53;;;2.60;;
38715;SDS011;24833;49.324;8.694;2022-12-20T17:24:50;3.33;;;2.42;;
38715;SDS011;24833;49.324;8.694;2022-12-20T17:27:17;3.53;;;2.33;;
38715;SDS011;24833;49.324;8.694;2022-12-20T17:29:44;4.22;;;3.05;;
38715;SDS011;24833;49.324;8.694;2022-12-20T17:32:23;5.18;;;3.20;;
38715;SDS011;24833;49.324;8.694;2022-12-20T17:34:51;3.88;;;3.08;;
38715;SDS011;24833;49.324;8.694;2022-12-20T17:37:19;5.07;;;3.55;;
38715;SDS011;24833;49.324;8.694;2022-12-20T17:39:47;3.60;;;2.88;;